createdAt,value
2016-04-03T12:41:39.300Z,265
2016-04-03T12:42:39.583Z,265
2016-04-03T12:43:39.586Z,265
2016-04-03T12:44:39.621Z,265
2016-04-03T12:45:39.732Z,265
2016-04-03T12:46:39.704Z,265
2016-04-03T12:47:54.379Z,265
2016-04-03T12:48:39.741Z,265
2016-04-03T12:49:39.712Z,265
2016-04-03T12:51:09.480Z,265
2016-04-03T12:51:39.765Z,265
2016-04-03T12:52:39.798Z,270
2016-04-03T12:53:39.848Z,275
2016-04-03T12:54:39.819Z,220
2016-04-03T12:55:39.853Z,260
2016-04-03T12:56:46.293Z,275
2016-04-03T12:57:39.921Z,280
2016-04-03T12:58:39.173Z,245
2016-04-03T12:59:39.942Z,210
2016-04-03T13:00:39.242Z,210
2016-04-03T13:01:39.276Z,205
2016-04-03T13:02:43.231Z,255
2016-04-03T13:03:40.077Z,265
2016-04-03T13:04:40.143Z,270
2016-04-03T13:05:40.099Z,280
2016-04-03T13:06:40.148Z,220
2016-04-03T13:07:40.151Z,270
2016-04-03T13:08:40.169Z,275
2016-04-03T13:09:40.203Z,275
2016-04-03T13:10:40.238Z,270
2016-04-03T13:11:40.272Z,260
2016-04-03T13:12:41.836Z,255
2016-04-03T13:13:40.386Z,255
2016-04-03T13:14:44.483Z,260
2016-04-03T13:15:41.188Z,260
2016-04-03T13:16:44.019Z,260
2016-04-03T13:17:42.272Z,265
2016-04-03T13:18:40.540Z,265
2016-04-03T13:19:40.340Z,260
2016-04-03T13:20:40.483Z,255
2016-04-03T13:21:40.532Z,255
2016-04-03T13:22:40.534Z,260
2016-04-03T13:23:40.554Z,260
2016-04-03T13:24:40.571Z,260
2016-04-03T13:25:40.606Z,255
2016-04-03T13:26:40.656Z,250
2016-04-03T13:27:41.736Z,250
2016-04-03T13:28:42.614Z,245
2016-04-03T13:30:09.553Z,255
2016-04-03T13:31:03.370Z,255
2016-04-03T13:32:03.372Z,250
2016-04-03T13:33:14.296Z,250
2016-04-03T13:33:58.221Z,250
2016-04-03T13:34:57.036Z,255
2016-04-03T13:35:50.725Z,255
2016-04-03T13:36:49.978Z,220
2016-04-03T13:37:55.028Z,240
2016-04-03T13:38:52.922Z,245
2016-04-03T13:39:42.081Z,250
2016-04-03T13:40:40.256Z,250
2016-04-03T13:41:41.008Z,220
2016-04-03T13:42:45.417Z,200
2016-04-03T13:43:46.138Z,210
2016-04-03T13:44:45.047Z,225
2016-04-03T13:45:41.113Z,235
2016-04-03T13:46:41.130Z,245
2016-04-03T13:47:41.649Z,255
2016-04-03T13:48:56.855Z,255
2016-04-03T13:49:41.248Z,255
2016-04-03T13:50:41.252Z,255
2016-04-03T13:51:41.269Z,235
2016-04-03T13:52:41.335Z,250
2016-04-03T13:53:41.307Z,255
2016-04-03T13:54:41.340Z,225
2016-04-03T13:55:41.359Z,195
2016-04-03T13:56:45.892Z,180
2016-04-03T13:57:41.395Z,185
2016-04-03T13:58:41.445Z,190
2016-04-03T13:59:41.478Z,215
2016-04-03T14:00:41.481Z,245
2016-04-03T14:01:41.514Z,250
2016-04-03T14:02:41.533Z,195
2016-04-03T14:03:41.567Z,215
2016-04-03T14:04:41.616Z,200
2016-04-03T14:05:41.620Z,245
2016-04-03T14:06:41.638Z,205
2016-04-03T14:07:41.375Z,215
2016-04-03T14:08:41.674Z,220
2016-04-03T14:09:41.708Z,235
2016-04-03T14:10:41.758Z,235
2016-04-03T14:11:41.916Z,230
2016-04-03T14:12:41.779Z,235
2016-04-03T14:14:08.110Z,225
2016-04-03T14:14:54.347Z,225
2016-04-03T14:15:41.866Z,220
2016-04-03T14:16:41.900Z,220
2016-04-03T14:17:41.918Z,215
2016-04-03T14:18:41.921Z,185
2016-04-03T14:19:42.001Z,185
2016-04-03T14:20:42.076Z,185
2016-04-03T14:21:42.160Z,180
2016-04-03T14:22:42.133Z,180
2016-04-03T14:23:42.013Z,190
2016-04-03T14:24:42.033Z,185
2016-04-03T14:25:42.088Z,190
2016-04-03T14:26:42.055Z,190
2016-04-03T14:27:42.068Z,190
2016-04-03T14:28:42.113Z,185
2016-04-03T14:29:42.110Z,190
2016-04-03T14:30:42.188Z,200
2016-04-03T14:31:42.252Z,225
2016-04-03T14:32:42.221Z,220
2016-04-03T14:33:42.223Z,235
2016-04-03T14:34:42.551Z,235
2016-04-03T14:35:42.444Z,200
2016-04-03T14:36:42.274Z,215
2016-04-03T14:37:42.323Z,190
2016-04-03T14:38:42.340Z,180
2016-04-03T14:39:42.358Z,175
2016-04-03T14:40:42.360Z,185
2016-04-03T14:41:42.393Z,175
2016-04-03T14:42:42.521Z,180
2016-04-03T14:43:42.760Z,180
2016-04-03T14:44:42.392Z,185
2016-04-03T14:45:42.505Z,185
2016-04-03T14:46:43.508Z,185
2016-04-03T14:47:42.808Z,170
2016-04-03T14:48:42.794Z,165
2016-04-03T14:49:42.703Z,165
2016-04-03T14:50:42.644Z,165
2016-04-03T14:51:42.755Z,155
2016-04-03T14:52:42.789Z,155
2016-04-03T14:53:43.105Z,155
2016-04-03T14:54:42.983Z,150
2016-04-03T14:55:44.094Z,150
2016-04-03T14:56:42.879Z,150
2016-04-03T14:57:42.819Z,150
2016-04-03T14:58:43.291Z,150
2016-04-03T14:59:42.855Z,150
2016-04-03T15:00:44.218Z,150
2016-04-03T15:01:43.079Z,150
2016-04-03T15:02:43.832Z,150
2016-04-03T15:03:43.054Z,155
2016-04-03T15:04:42.869Z,170
2016-04-03T15:05:43.231Z,170
2016-04-03T15:06:43.093Z,170
2016-04-03T15:07:43.080Z,170
2016-04-03T15:08:43.115Z,170
2016-04-03T15:09:42.351Z,170
2016-04-03T15:10:43.150Z,165
2016-04-03T15:11:43.169Z,165
2016-04-03T15:12:43.250Z,165
2016-04-03T15:13:43.221Z,160
2016-04-03T15:14:43.318Z,155
2016-04-03T15:15:43.258Z,150
2016-04-03T15:16:43.276Z,145
2016-04-03T15:17:43.294Z,135
2016-04-03T15:18:43.438Z,130
2016-04-03T15:19:43.378Z,125
2016-04-03T15:20:43.397Z,125
2016-04-03T15:21:43.399Z,120
2016-04-03T15:22:43.449Z,120
2016-04-03T15:23:43.452Z,120
2016-04-03T15:24:43.485Z,120
2016-04-03T15:25:43.535Z,120
2016-04-03T15:26:43.521Z,125
2016-04-03T15:27:43.540Z,130
2016-04-03T15:28:43.918Z,135
2016-04-03T15:29:43.592Z,135
2016-04-03T15:30:43.689Z,135
2016-04-03T15:34:01.260Z,135
2016-04-03T15:35:01.293Z,125
2016-04-03T15:36:01.280Z,125
2016-04-03T15:37:01.283Z,125
2016-04-03T15:38:01.333Z,130
2016-04-03T15:39:01.351Z,140
2016-04-03T15:40:01.369Z,150
2016-04-03T15:41:01.387Z,165
2016-04-03T15:42:01.437Z,170
2016-04-03T15:43:01.470Z,175
2016-04-03T15:44:01.474Z,180
2016-04-03T15:45:01.571Z,190
2016-04-03T15:46:01.510Z,180
2016-04-03T15:47:01.544Z,190
2016-04-03T15:48:01.406Z,190
2016-04-03T15:49:01.581Z,185
2016-04-03T15:50:01.692Z,180
2016-04-03T15:51:01.633Z,180
2016-04-03T15:52:01.652Z,180
2016-04-03T15:53:01.685Z,175
2016-04-03T15:54:01.719Z,175
2016-04-03T15:55:01.753Z,175
2016-04-03T15:56:01.819Z,175
2016-04-03T15:57:01.790Z,175
2016-04-03T15:58:01.808Z,175
2016-04-03T15:59:01.857Z,165
2016-04-03T16:00:01.844Z,160
2016-04-03T16:01:01.911Z,155
2016-04-03T16:02:02.054Z,145
2016-04-03T16:03:01.931Z,145
2016-04-03T16:04:01.965Z,145
2016-04-03T16:05:01.983Z,145
2016-04-03T16:06:02.018Z,145
2016-04-03T16:07:02.036Z,145
2016-04-03T16:08:02.085Z,150
2016-04-03T16:09:02.151Z,155
2016-04-03T16:10:02.185Z,155
2016-04-03T16:11:02.124Z,155
2016-04-03T16:12:02.206Z,145
2016-04-03T16:13:02.239Z,140
2016-04-03T16:14:02.742Z,135
2016-04-03T16:15:02.479Z,140
2016-04-03T16:16:02.295Z,125
2016-04-03T16:17:02.390Z,120
2016-04-03T16:18:02.518Z,115
2016-04-03T16:19:02.334Z,115
2016-04-03T16:20:02.492Z,110
2016-04-03T16:21:02.511Z,100
2016-04-03T16:22:02.419Z,95
2016-04-03T16:23:02.470Z,90
2016-04-03T16:24:02.472Z,85
2016-04-03T16:25:02.474Z,75
2016-04-03T16:26:02.524Z,70
2016-04-03T16:27:02.558Z,65
2016-04-03T16:28:02.561Z,60
2016-04-03T16:29:02.611Z,60
2016-04-03T16:30:02.629Z,55
2016-04-03T16:31:02.616Z,50
2016-04-03T16:32:02.666Z,50
2016-04-03T16:33:02.699Z,45
2016-04-03T16:34:01.952Z,45
2016-04-03T16:35:02.736Z,45
2016-04-03T16:36:02.754Z,45
2016-04-03T16:37:02.788Z,45
2016-04-03T16:38:02.057Z,45
2016-04-03T16:39:09.949Z,45
2016-04-03T16:40:02.859Z,45
2016-04-03T16:41:02.877Z,45
2016-04-03T16:42:02.895Z,45
2016-04-03T16:43:02.929Z,45
2016-04-03T16:44:02.979Z,45
2016-04-03T16:45:02.966Z,40
2016-04-03T16:46:03.000Z,40
2016-04-03T16:47:03.050Z,40
2016-04-03T16:48:03.098Z,40
2016-04-03T16:49:03.087Z,40
2016-04-03T16:50:03.136Z,40
2016-04-03T16:51:03.139Z,45
2016-04-03T16:52:03.172Z,45
2016-04-03T16:53:03.159Z,50
2016-04-03T16:54:03.208Z,50
2016-04-03T16:55:03.055Z,50
2016-04-03T16:56:03.324Z,50
2016-04-03T16:57:03.248Z,45
2016-04-03T16:58:03.330Z,40
2016-04-03T16:59:03.300Z,40
2016-04-03T17:00:03.366Z,35
2016-04-03T17:01:03.338Z,30
2016-04-03T17:02:03.387Z,30
2016-04-03T17:03:03.405Z,25
2016-04-03T17:04:03.439Z,25
2016-04-03T17:05:03.441Z,20
2016-04-03T17:06:03.491Z,20
2016-04-03T17:07:03.510Z,20
2016-04-03T17:08:03.527Z,15
2016-04-03T17:09:03.546Z,15
2016-04-03T17:10:03.565Z,15
2016-04-03T17:11:03.599Z,15
2016-04-03T17:12:03.618Z,15
2016-04-03T17:13:03.635Z,10
2016-04-03T17:14:03.669Z,10
2016-04-03T17:15:03.703Z,10
2016-04-03T17:16:03.706Z,10
2016-04-03T17:17:03.739Z,10
2016-04-03T17:18:03.773Z,10
2016-04-03T17:19:03.807Z,10
2016-04-03T17:20:03.826Z,10
2016-04-03T17:21:03.844Z,10
2016-04-03T17:22:03.847Z,10
2016-04-03T17:23:03.911Z,10
2016-04-03T17:24:03.914Z,10
2016-04-03T17:25:03.917Z,10
2016-04-03T17:26:03.810Z,10
2016-04-03T17:27:03.969Z,10
2016-04-03T17:28:04.019Z,10
2016-04-03T17:29:04.038Z,10
2016-04-03T17:30:04.055Z,10
2016-04-03T17:31:04.074Z,10
2016-04-03T17:32:04.092Z,10
2016-04-03T17:33:04.110Z,10
2016-04-03T17:34:04.144Z,10
2016-04-03T17:35:04.210Z,10
2016-04-03T17:36:04.181Z,10
2016-04-03T17:37:04.215Z,5
2016-04-03T17:38:04.233Z,5
2016-04-03T17:39:04.377Z,5
2016-04-03T17:40:04.349Z,5
2016-04-03T17:41:04.382Z,5
2016-04-03T17:42:04.323Z,5
2016-04-03T17:43:04.340Z,5
2016-04-03T17:44:04.406Z,5
2016-04-03T17:45:04.393Z,5
2016-04-03T17:46:04.442Z,5
2016-04-03T17:47:04.429Z,5
2016-04-03T17:48:04.495Z,0
2016-04-03T17:49:04.513Z,0
2016-04-03T17:50:04.532Z,0
2016-04-03T17:51:04.534Z,0
2016-04-03T17:52:04.568Z,0
2016-04-03T17:53:04.587Z,0
2016-04-03T17:54:04.605Z,0
2016-04-03T17:55:04.639Z,0
2016-04-03T17:56:04.672Z,0
2016-04-03T17:57:04.675Z,0
2016-04-03T17:58:04.708Z,0
2016-04-03T17:59:04.727Z,0
2016-04-03T18:00:04.762Z,0
2016-04-03T18:01:04.764Z,0
2016-04-03T18:02:04.814Z,0
2016-04-03T18:03:04.832Z,0
2016-04-03T18:04:04.850Z,0
2016-04-03T18:05:04.868Z,0
2016-04-03T18:06:04.887Z,0
2016-04-03T18:07:04.905Z,0
2016-04-03T18:08:04.939Z,0
2016-04-03T18:09:04.973Z,0
2016-04-03T18:10:04.976Z,0
2016-04-03T18:11:05.010Z,0
2016-04-03T18:12:05.044Z,0
2016-04-03T18:13:05.062Z,0
2016-04-03T18:14:05.080Z,0
2016-04-03T18:15:05.114Z,0
2016-04-03T18:16:05.117Z,0
2016-04-03T18:17:05.135Z,0
2016-04-03T18:18:05.170Z,0
2016-04-03T18:19:05.188Z,0
2016-04-03T18:20:05.221Z,0
2016-04-03T18:21:05.240Z,0
2016-04-03T18:22:05.242Z,0
2016-04-03T18:23:05.292Z,0
2016-04-03T18:24:05.311Z,0
2016-04-03T18:25:05.329Z,0
2016-04-03T18:26:05.348Z,0
2016-04-03T18:27:05.381Z,0
2016-04-03T18:28:05.400Z,0
2016-04-03T18:29:05.417Z,0
2016-04-03T18:30:05.452Z,0
2016-04-03T18:31:05.460Z,0
2016-04-03T18:32:05.494Z,0
2016-04-03T18:33:05.512Z,0
2016-04-03T18:34:05.562Z,0
2016-04-03T18:35:05.548Z,0
2016-04-03T18:36:05.614Z,0
2016-04-03T18:37:05.600Z,0
2016-04-03T18:38:05.635Z,0
2016-04-03T18:39:05.638Z,0
2016-04-03T18:40:05.687Z,0
2016-04-03T18:41:05.689Z,0
2016-04-03T18:42:05.725Z,0
2016-04-03T18:43:05.727Z,0
2016-04-03T18:44:05.777Z,0
2016-04-03T18:45:05.794Z,0
2016-04-03T18:46:05.829Z,0
2016-04-03T18:47:05.815Z,0
2016-04-03T18:48:05.850Z,0
2016-04-03T18:49:05.868Z,0
2016-04-03T18:50:05.918Z,0
2016-04-03T18:51:05.936Z,0
2016-04-03T18:52:05.954Z,0
2016-04-03T18:53:05.957Z,0
2016-04-03T18:54:06.006Z,0
2016-04-03T18:55:06.009Z,0
2016-04-03T18:56:06.027Z,0
2016-04-03T18:57:06.061Z,0
2016-04-03T18:58:06.095Z,0
2016-04-03T18:59:06.098Z,0
2016-04-03T19:00:06.116Z,0
2016-04-03T19:01:06.165Z,0
2016-04-03T19:02:06.184Z,0
2016-04-03T19:03:06.203Z,0
2016-04-03T19:04:06.221Z,0
2016-04-03T19:05:06.270Z,0
2016-04-03T19:06:06.289Z,0
2016-04-03T19:07:06.292Z,0
2016-04-03T19:08:06.325Z,0
2016-04-03T19:09:06.344Z,0
2016-04-03T19:10:06.347Z,0
2016-04-03T19:11:06.380Z,0
2016-04-03T19:12:06.414Z,0
2016-04-03T19:13:06.463Z,0
2016-04-03T19:14:06.451Z,0
2016-04-03T19:15:06.454Z,0
2016-04-03T19:16:06.502Z,0
2016-04-03T19:17:06.569Z,0
2016-04-03T19:18:06.539Z,0
2016-04-03T19:19:06.558Z,0
2016-04-03T19:20:06.576Z,0
2016-04-03T19:21:06.611Z,0
2016-04-03T19:22:06.629Z,0
2016-04-03T19:23:06.663Z,0
2016-04-03T19:24:06.680Z,0
2016-04-03T19:25:05.933Z,0
2016-04-03T19:26:06.686Z,0
2016-04-03T19:27:06.752Z,0
2016-04-03T19:28:06.785Z,0
2016-04-03T19:29:06.819Z,0
2016-04-03T19:30:06.040Z,0
2016-04-03T19:31:06.824Z,0
2016-04-03T19:32:06.859Z,0
2016-04-03T19:33:06.893Z,0
2016-04-03T19:34:06.879Z,0
2016-04-03T19:35:06.945Z,0
2016-04-03T19:36:06.948Z,0
2016-04-03T19:37:06.950Z,0
2016-04-03T19:38:07.000Z,0
2016-04-03T19:39:07.034Z,0
2016-04-03T19:40:06.302Z,0
2016-04-03T19:41:07.055Z,0
2016-04-03T19:42:07.104Z,0
2016-04-03T19:43:07.122Z,0
2016-04-03T19:44:07.125Z,0
2016-04-03T19:45:07.144Z,0
2016-04-03T19:46:07.209Z,0
2016-04-03T19:47:07.211Z,0
2016-04-03T19:48:07.199Z,0
2016-04-03T19:49:07.232Z,0
2016-04-03T19:50:07.282Z,0
2016-04-03T19:51:07.300Z,0
2016-04-03T19:52:07.288Z,0
2016-04-03T19:53:07.337Z,0
2016-04-03T19:54:07.355Z,0
2016-04-03T19:55:07.374Z,0
2016-04-03T19:56:07.391Z,0
2016-04-03T19:57:07.410Z,0
2016-04-03T19:58:07.444Z,0
2016-04-03T19:59:07.478Z,0
2016-04-03T20:00:07.496Z,0
2016-04-03T20:01:07.499Z,0
2016-04-03T20:02:07.532Z,0
2016-04-03T20:03:07.568Z,0
2016-04-03T20:04:07.570Z,0
2016-04-03T20:05:07.620Z,0
2016-04-03T20:06:07.606Z,0
2016-04-03T20:07:07.656Z,0
2016-04-03T20:08:07.659Z,0
2016-04-03T20:09:07.724Z,0
2016-04-03T20:10:07.679Z,0
2016-04-03T20:11:07.729Z,0
2016-04-03T20:12:07.779Z,0
2016-04-03T20:13:07.781Z,0
2016-04-03T20:14:07.784Z,0
2016-04-03T20:15:07.833Z,0
2016-04-03T20:16:07.867Z,0
2016-04-03T20:17:07.885Z,0
2016-04-03T20:18:07.873Z,0
2016-04-03T20:19:07.907Z,0
2016-04-03T20:20:07.947Z,0
2016-04-03T20:21:07.964Z,0
2016-04-03T20:22:07.967Z,0
2016-04-03T20:23:08.002Z,0
2016-04-03T20:24:08.035Z,0
2016-04-03T20:25:08.069Z,0
2016-04-03T20:26:08.072Z,0
2016-04-03T20:27:08.075Z,0
2016-04-03T20:28:08.108Z,0
2016-04-03T20:29:08.111Z,0
2016-04-03T20:30:08.160Z,0
2016-04-03T20:31:08.194Z,0
2016-04-03T20:32:08.197Z,0
2016-04-03T20:33:08.216Z,0
2016-04-03T20:34:08.235Z,0
2016-04-03T20:35:08.284Z,0
2016-04-03T20:36:08.302Z,0
2016-04-03T20:37:08.320Z,0
2016-04-03T20:38:08.338Z,0
2016-04-03T20:39:07.591Z,0
2016-04-03T20:40:08.359Z,0
2016-04-03T20:41:08.440Z,0
2016-04-03T20:42:08.303Z,0
2016-04-03T20:43:08.462Z,0
2016-04-03T20:44:08.465Z,0
2016-04-03T20:45:08.482Z,0
2016-04-03T20:46:08.532Z,0
2016-04-03T20:47:08.550Z,0
2016-04-03T20:48:08.584Z,0
2016-04-03T20:49:08.556Z,0
2016-04-03T20:50:08.605Z,0
2016-04-03T20:51:07.874Z,0
2016-04-03T20:52:08.673Z,0
2016-04-03T20:53:08.645Z,0
2016-04-03T20:54:08.694Z,0
2016-04-03T20:55:08.713Z,0
2016-04-03T20:56:08.716Z,0
2016-04-03T20:57:08.749Z,0
2016-04-03T20:58:08.767Z,0
2016-04-03T20:59:08.785Z,0
2016-04-03T21:00:08.788Z,0
2016-04-03T21:01:08.854Z,0
2016-04-03T21:02:08.872Z,0
2016-04-03T21:03:08.906Z,0
2016-04-03T21:04:08.893Z,0
2016-04-03T21:05:08.927Z,0
2016-04-03T21:06:08.960Z,0
2016-04-03T21:07:08.980Z,0
2016-04-03T21:08:08.982Z,0
2016-04-03T21:09:09.032Z,0
2016-04-03T21:10:09.035Z,0
2016-04-03T21:11:09.084Z,0
2016-04-03T21:12:09.087Z,0
2016-04-03T21:13:09.104Z,0
2016-04-03T21:14:09.123Z,0
2016-04-03T21:15:09.126Z,0
2016-04-03T21:16:09.160Z,0
2016-04-03T21:17:09.193Z,0
2016-04-03T21:18:09.243Z,0
2016-04-03T21:19:09.215Z,0
2016-04-03T21:20:09.264Z,0
2016-04-03T21:21:09.283Z,0
2016-04-03T21:22:09.317Z,0
2016-04-03T21:23:09.334Z,0
2016-04-03T21:24:09.337Z,0
2016-04-03T21:25:09.355Z,0
2016-04-03T21:26:09.389Z,0
2016-04-03T21:27:09.424Z,0
2016-04-03T21:28:09.458Z,0
2016-04-03T21:29:09.492Z,0
2016-04-03T21:30:09.478Z,0
2016-04-03T21:31:09.497Z,0
2016-04-03T21:32:09.530Z,0
2016-04-03T21:33:09.580Z,0
2016-04-03T21:34:09.568Z,0
2016-04-03T21:35:09.602Z,0
2016-04-03T21:36:09.619Z,0
2016-04-03T21:37:09.622Z,0
2016-04-03T21:38:09.641Z,0
2016-04-03T21:39:09.690Z,0
2016-04-03T21:40:09.709Z,0
2016-04-03T21:41:09.695Z,0
2016-04-03T21:42:09.729Z,0
2016-04-03T21:43:09.763Z,0
2016-04-03T21:44:09.813Z,0
2016-04-03T21:45:09.816Z,0
2016-04-03T21:46:09.834Z,0
2016-04-03T21:47:09.837Z,0
2016-04-03T21:48:09.886Z,0
2016-04-03T21:49:09.904Z,0
2016-04-03T21:50:09.922Z,0
2016-04-03T21:51:09.941Z,0
2016-04-03T21:52:09.959Z,0
2016-04-03T21:53:09.978Z,0
2016-04-03T21:54:09.997Z,0
2016-04-03T21:55:10.013Z,0
2016-04-03T21:56:10.048Z,0
2016-04-03T21:57:10.082Z,0
2016-04-03T21:58:10.068Z,0
2016-04-03T21:59:10.102Z,0
2016-04-03T22:00:10.120Z,0
2016-04-03T22:01:10.186Z,0
2016-04-03T22:02:10.189Z,0
2016-04-03T22:05:10.259Z,0
2016-04-03T22:06:10.262Z,0
2016-04-03T22:07:10.295Z,0
2016-04-03T22:08:10.298Z,0
2016-04-03T22:09:10.333Z,0
2016-04-03T22:10:10.351Z,0
2016-04-03T22:11:10.385Z,0
2016-04-03T22:12:10.372Z,0
2016-04-03T22:13:10.406Z,0
2016-04-03T22:14:10.424Z,0
2016-04-03T22:15:10.442Z,0
2016-04-03T22:16:10.491Z,0
2016-04-03T22:17:10.510Z,0
2016-04-03T22:18:10.497Z,0
2016-04-03T22:19:10.547Z,0
2016-04-03T22:20:10.581Z,0
2016-04-03T22:21:10.583Z,0
2016-04-03T22:22:10.586Z,0
2016-04-03T22:23:10.620Z,0
2016-04-03T22:24:10.654Z,0
2016-04-03T22:25:10.692Z,0
2016-04-03T22:26:10.710Z,0
2016-04-03T22:27:10.714Z,0
2016-04-03T22:28:10.716Z,0
2016-04-03T22:29:10.781Z,0
2016-04-03T22:30:10.799Z,0
2016-04-03T22:31:10.802Z,0
2016-04-03T22:32:10.820Z,0
2016-04-03T22:33:10.869Z,0
2016-04-03T22:34:10.888Z,0
2016-04-03T22:35:10.890Z,0
2016-04-03T22:36:10.894Z,0
2016-04-03T22:37:10.911Z,0
2016-04-03T22:38:10.946Z,0
2016-04-03T22:39:10.949Z,0
2016-04-03T22:40:10.966Z,0
2016-04-03T22:41:11.016Z,0
2016-04-03T22:42:11.035Z,0
2016-04-03T22:43:11.052Z,0
2016-04-03T22:44:11.040Z,0
2016-04-03T22:45:11.089Z,0
2016-04-03T22:46:11.108Z,0
2016-04-03T22:47:11.126Z,0
2016-04-03T22:48:11.129Z,0
2016-04-03T22:49:11.179Z,0
2016-04-03T22:50:11.212Z,0
2016-04-03T22:51:11.215Z,0
2016-04-03T22:52:11.108Z,0
2016-04-03T22:53:11.267Z,0
2016-04-03T22:54:11.301Z,0
2016-04-03T22:55:11.304Z,0
2016-04-03T22:56:11.338Z,0
2016-04-03T22:57:11.356Z,0
2016-04-03T22:58:11.391Z,0
2016-04-03T22:59:11.409Z,0
2016-04-03T23:00:11.428Z,0
2016-04-03T23:01:11.430Z,0
2016-04-03T23:02:11.448Z,0
2016-04-03T23:03:11.498Z,0
2016-04-03T23:04:11.501Z,0
2016-04-03T23:05:11.520Z,0
2016-04-03T23:06:11.537Z,0
2016-04-03T23:07:11.556Z,0
2016-04-03T23:08:11.620Z,0
2016-04-03T23:09:11.608Z,0
2016-04-03T23:10:11.641Z,0
2016-04-03T23:11:11.649Z,0
2016-04-03T23:12:11.669Z,0
2016-04-03T23:13:11.702Z,0
2016-04-03T23:14:11.736Z,0
2016-04-03T23:15:11.754Z,0
2016-04-03T23:16:11.757Z,0
2016-04-03T23:17:11.787Z,0
2016-04-03T23:18:11.805Z,0
2016-04-03T23:19:11.854Z,0
2016-04-03T23:20:11.825Z,0
2016-04-03T23:21:11.876Z,0
2016-04-03T23:22:11.894Z,0
2016-04-03T23:23:11.928Z,0
2016-04-03T23:24:11.930Z,0
2016-04-03T23:25:11.949Z,0
2016-04-03T23:26:11.983Z,0
2016-04-03T23:27:11.994Z,0
2016-04-03T23:28:12.002Z,0
2016-04-03T23:29:11.992Z,0
2016-04-03T23:30:12.031Z,0
2016-04-03T23:31:12.038Z,0
2016-04-03T23:32:12.033Z,0
2016-04-03T23:33:12.063Z,0
2016-04-03T23:34:12.076Z,0
2016-04-03T23:35:12.121Z,0
2016-04-03T23:36:12.105Z,0
2016-04-03T23:37:12.136Z,0
2016-04-03T23:38:12.168Z,0
2016-04-03T23:39:12.169Z,0
2016-04-03T23:40:12.045Z,0
2016-04-03T23:41:12.219Z,0
2016-04-03T23:42:12.251Z,0
2016-04-03T23:43:12.253Z,0
2016-04-03T23:44:12.271Z,0
2016-04-03T23:45:12.273Z,0
2016-04-03T23:46:12.322Z,0
2016-04-03T23:47:12.339Z,0
2016-04-03T23:48:12.358Z,0
2016-04-03T23:49:12.392Z,0
2016-04-03T23:50:12.395Z,0
2016-04-03T23:51:12.444Z,0
2016-04-03T23:52:12.432Z,0
2016-04-03T23:53:12.465Z,0
2016-04-03T23:54:12.483Z,0
2016-04-03T23:55:12.502Z,0
2016-04-03T23:56:12.551Z,0
2016-04-03T23:57:12.538Z,0
2016-04-03T23:58:12.556Z,0
2016-04-03T23:59:12.576Z,0
